createdAt,value
2019-01-19T00:04:23.801Z,11.77
2019-01-19T00:14:35.829Z,11.53
2019-01-19T00:25:09.260Z,11.00
2019-01-19T00:35:49.893Z,10.87
2019-01-19T00:46:20.359Z,11.57
2019-01-19T00:56:43.497Z,11.13
2019-01-19T01:07:36.019Z,10.63
2019-01-19T01:17:55.229Z,10.93
2019-01-19T01:28:20.429Z,10.60
2019-01-19T01:38:49.641Z,11.27
2019-01-19T01:49:26.457Z,11.77
2019-01-19T02:00:05.959Z,11.93
2019-01-19T02:10:51.431Z,12.30
2019-01-19T02:21:36.141Z,11.07
2019-01-19T02:32:06.675Z,12.50
2019-01-19T02:42:42.310Z,12.87
2019-01-19T02:53:25.872Z,12.07
2019-01-19T03:04:02.134Z,13.03
2019-01-19T03:14:48.367Z,12.73
2019-01-19T03:25:23.353Z,13.33
2019-01-19T03:35:39.554Z,15.10
2019-01-19T03:46:29.161Z,16.97
2019-01-19T03:57:09.749Z,17.07
2019-01-19T04:07:26.352Z,15.13
2019-01-19T04:17:55.857Z,16.67
2019-01-19T04:28:03.055Z,15.77
2019-01-19T04:38:08.338Z,17.27
2019-01-19T04:48:14.047Z,17.53
2019-01-19T04:58:19.395Z,14.93
2019-01-19T05:08:24.738Z,15.10
2019-01-19T05:18:30.282Z,13.47
2019-01-19T05:28:35.793Z,12.27
2019-01-19T05:38:41.167Z,11.17
2019-01-19T05:48:46.500Z,10.70
2019-01-19T05:58:51.841Z,11.50
2019-01-19T06:08:57.178Z,11.60
2019-01-19T06:19:02.684Z,11.40
2019-01-19T06:29:07.886Z,12.10
2019-01-19T06:39:13.210Z,12.03
2019-01-19T06:49:18.573Z,10.90
2019-01-19T06:59:23.983Z,10.80
2019-01-19T07:09:29.291Z,12.47
2019-01-19T07:19:34.719Z,13.13
2019-01-19T07:29:40.033Z,12.07
2019-01-19T07:39:45.340Z,12.93
2019-01-19T07:49:50.625Z,13.33
2019-01-19T07:59:55.927Z,13.67
2019-01-19T08:10:01.287Z,14.57
2019-01-19T08:20:07.239Z,14.90
2019-01-19T08:30:15.793Z,15.00
2019-01-19T08:40:26.487Z,14.47
2019-01-19T08:50:31.855Z,14.37
2019-01-19T09:00:37.178Z,15.17
2019-01-19T09:10:42.516Z,15.07
2019-01-19T09:20:47.946Z,14.23
2019-01-19T09:30:53.367Z,17.80
2019-01-19T09:40:58.987Z,12.57
2019-01-19T09:51:04.468Z,13.93
2019-01-19T10:01:10.576Z,17.20
2019-01-19T10:11:16.244Z,16.77
2019-01-19T10:21:21.604Z,15.57
2019-01-19T10:31:26.937Z,14.57
2019-01-19T10:41:32.255Z,15.63
2019-01-19T10:51:37.682Z,14.30
2019-01-19T11:01:42.964Z,12.93
2019-01-19T11:11:48.290Z,15.47
2019-01-19T11:21:53.656Z,13.67
2019-01-19T11:31:59.047Z,12.23
2019-01-19T11:42:04.394Z,11.90
2019-01-19T11:52:09.841Z,13.57
2019-01-19T12:02:15.312Z,14.47
2019-01-19T12:12:20.776Z,13.90
2019-01-19T12:22:27.132Z,12.00
2019-01-19T12:32:32.635Z,12.70
2019-01-19T12:42:38.124Z,12.17
2019-01-19T12:52:43.652Z,11.70
2019-01-19T13:02:49.099Z,12.17
2019-01-19T13:13:16.223Z,14.87
2019-01-19T13:23:48.675Z,14.20
2019-01-19T13:34:47.779Z,17.07
2019-01-19T13:45:49.208Z,13.40
2019-01-19T13:56:35.665Z,15.33
2019-01-19T14:07:26.567Z,12.43
2019-01-19T14:17:55.988Z,13.93
2019-01-19T14:28:45.084Z,11.73
2019-01-19T14:39:32.689Z,12.23
2019-01-19T14:50:29.478Z,12.50
2019-01-19T15:00:56.236Z,11.23
2019-01-19T15:11:30.152Z,10.77
2019-01-19T15:22:03.374Z,12.77
2019-01-19T15:32:47.446Z,11.13
2019-01-19T15:43:25.438Z,11.97
2019-01-19T15:54:20.726Z,15.13
2019-01-19T16:05:02.922Z,12.70
2019-01-19T16:15:42.219Z,12.23
2019-01-19T16:26:12.070Z,14.17
2019-01-19T16:37:07.579Z,14.97
2019-01-19T16:47:41.710Z,17.90
2019-01-19T16:58:26.492Z,15.67
2019-01-19T17:09:19.571Z,15.27
2019-01-19T17:20:29.746Z,20.60
2019-01-19T17:31:37.152Z,25.50
2019-01-19T17:42:28.818Z,25.80
2019-01-19T17:53:12.218Z,23.00
2019-01-19T18:03:41.800Z,23.60
2019-01-19T18:14:39.731Z,20.80
2019-01-19T18:25:07.950Z,19.13
2019-01-19T18:35:39.878Z,17.87
2019-01-19T18:46:33.241Z,16.03
2019-01-19T18:57:25.758Z,17.73
2019-01-19T19:08:02.210Z,18.40
2019-01-19T19:18:49.718Z,17.60
2019-01-19T19:29:41.399Z,20.03
2019-01-19T19:40:15.361Z,20.27
2019-01-19T19:50:58.293Z,20.80
2019-01-19T20:01:03.701Z,20.27
2019-01-19T20:11:09.005Z,21.50
2019-01-19T20:21:14.382Z,21.30
2019-01-19T20:31:19.745Z,21.07
2019-01-19T20:41:25.123Z,20.87
2019-01-19T20:51:30.499Z,19.57
2019-01-19T21:01:36.008Z,20.37
2019-01-19T21:11:41.413Z,21.20
2019-01-19T21:21:46.905Z,22.43
2019-01-19T21:31:52.267Z,22.67
2019-01-19T21:41:57.591Z,21.80
2019-01-19T21:52:02.979Z,21.80
2019-01-19T22:02:08.369Z,22.33
2019-01-19T22:12:13.978Z,23.27
2019-01-19T22:22:19.386Z,21.83
2019-01-19T22:32:25.029Z,21.33
2019-01-19T22:42:30.380Z,21.57
2019-01-19T22:52:35.700Z,22.83
2019-01-19T23:02:41.106Z,24.50
2019-01-19T23:12:47.571Z,24.00
2019-01-19T23:22:52.944Z,23.93
2019-01-19T23:32:58.382Z,24.17
2019-01-19T23:43:03.677Z,23.70
2019-01-19T23:53:09.090Z,22.77
